Tiempo atmosférico en la estación meteorológica de Lalastra, Araba/Álava (910 m.)



Fecha
DESCASC
Temp. máxima en grados centígrados (hora)
DESCASC
Temp. mínima en grados centígrados (hora)
DESCASC
Temp. media en grados centígrados
DESCASC
Racha de viento máxima en m/sg (hora)
DESCASC
Velocidad máxima media en intervalos de 10 minutos(hora)
DESCASC
Precipitaciones diarias en mm
DESCASC
Precipitaciones de 00:00 a 06:00 en mm
DESCASC
Precipitaciones de 06:00 a 12:00 en mm
DESCASC
Precipitaciones de 12:00 a 18:00 en mm
DESCASC
Precipitaciones de 18:00 a 24:00 en mm
DESCASC
18-01-2020 6.7 (15:10) -0.9 (-00:0) 2.9 13.33 (09:40) 6.94 (11:10) 11.6 0 0 6 5.6
21-01-2020 1.3 (23:10) -1.3 (-00:0) 0 11.39 (17:40) 5.56 (21:10) 1.4 0 0 1.4 0
10-01-2020 4.6 (12:00) -0.1 (00:00) 2.2 10.83 (20:10) 6.39 (19:50) 0.6 0 0 0.6 0
11-01-2020 8.8 (16:40) -2.4 (-00:0) 3.2 3.89 (12:50) 2.22 (12:30) 0 0 0 0 0
25-01-2020 6 (16:00) 1.7 (00:00) 3.9 3.89 (13:30) 2.5 (13:30) 2.2 0 0 0 2.2
24-01-2020 5.8 (16:20) 1.1 (00:00) 3.5 5.83 (10:20) 3.33 (10:20) 0 0 0 0 0
23-01-2020 5.8 (16:00) -0.7 (-00:0) 2.6 3.89 (16:30) 2.5 (16:30) 0 0 0 0 0
22-01-2020 6.9 (15:30) 1.3 (00:00) 4.1 7.78 (00:40) 3.06 (17:30) 0 0 0 0 0
20-01-2020 -0.3 (15:20) -1.8 (-00:0) -1 15 (05:20) 6.94 (05:10) 0 0 0 0 0
19-01-2020 3.1 (04:00) -0.4 (00:00) 1.3 19.72 (14:40) 10 (09:40) 4.8 2.4 2.4 0 0
17-01-2020 8.8 (16:00) -0.5 (-00:0) 4.2 12.22 (00:30) 6.39 (03:00) 0 0 0 0 0
16-01-2020 12 (15:30) 6.7 (00:00) 9.3 17.5 (15:10) 8.06 (06:30) 0 0 0 0 0
15-01-2020 8.9 (13:40) 5.9 (00:00) 7.4 19.17 (02:50) 9.44 (02:50) 0 0 0 0 0
14-01-2020 7.2 (16:20) 2.3 (00:00) 4.7 20 (13:20) 10.28 (11:40) 0 0 0 0 0
13-01-2020 6.7 (15:00) -1.4 (-00:0) 2.6 16.11 (23:40) 8.33 (16:10) 0 0 0 0 0
12-01-2020 10 (13:40) -4.6 (-00:0) 2.7 7.5 (15:20) 4.17 (15:20) 0 0 0 0 0
27-12-2019 11 (16:30) -5.2 (-00:0) 2.9 2.22 (21:00) 1.39 (21:00) 0 0 0 0 0
09-01-2020 9.3 (14:30) 1.2 (00:00) 5.3 17.22 (11:50) 8.06 (15:00) 1.6 0 0 0 1.6
08-01-2020 14.4 (16:20) 1.7 (00:00) 8 3.33 (11:50) 1.67 (16:10) 0 0 0 0 0
07-01-2020 14.3 (15:40) -2.6 (-00:0) 5.9 3.06 (14:40) 1.94 (14:40) 0 0 0 0 0
06-01-2020 11.7 (15:50) -3.1 (-00:0) 4.3 4.72 (12:30) 2.5 (15:20) 0 0 0 0 0
05-01-2020 12.9 (15:30) -1.6 (-00:0) 5.6 5.56 (11:50) 2.22 (13:30) 0 0 0 0 0
04-01-2020 5.5 (12:20) 1.7 (00:00) 3.6 8.33 (10:50) 3.89 (11:20) 0 0 0 0 0
03-01-2020 6.4 (12:50) 0.5 (00:00) 3.5 11.67 (00:30) 5.56 (00:50) 0 0 0 0 0
02-01-2020 10.8 (13:50) -1.4 (-00:0) 4.7 16.94 (13:30) 9.17 (12:00) 0 0 0 0 0
01-01-2020 12.2 (15:10) -3.1 (-00:0) 4.5 5.28 (14:20) 2.5 (14:10) 0 0 0 0 0
31-12-2019 12.6 (15:00) -1.8 (-00:0) 5.4 3.06 (14:10) 1.67 (14:10) 0 0 0 0 0
30-12-2019 -- (--) -- (--) -- -- (--) -- (--) -- 0 0 0 --
29-12-2019 15.2 (15:10) -0.9 (-00:0) 7.1 1.67 (15:10) 1.11 (03:20) 0 0 0 0 0
28-12-2019 15.6 (15:30) -1.6 (-00:0) 7 2.22 (00:30) 1.39 (15:00) 0 0 0 0 0

Gráficas

Temp. máximas Temp. mínimas Temp. medias Precipitaciones Rachas de viento máximas Velocidades máximas media en intervalos de 10 minutos

Datos horarios

Fecha y hora oficial Temperatura (ºC) Velocidad del viento (km/h) Dirección del viento Racha (km/h) Dirección de racha Precipitación (mm) Presión (hPa) Tendencia (hPa) Humedad (%)
2020-01-25 23:00:00 3.7 0 Calma 4 Norte 0.2 -- -- 98
2020-01-25 22:00:00 4 0 Calma 4 Sudeste 0.4 -- -- 98
2020-01-25 21:00:00 4.2 0 Calma 5 Norte 1.6 -- -- 98
2020-01-25 20:00:00 4.4 0 Calma 4 Nordeste 0 -- -- 96
2020-01-25 19:00:00 4.6 3 Sur 10 Sur 0 -- -- 95
2020-01-25 18:00:00 5 5 Sur 10 Sudoeste 0 -- -- 94
2020-01-25 17:00:00 5.7 4 Sur 12 Sudoeste 0 -- -- 92
2020-01-25 16:00:00 6 5 Sudoeste 12 Sudoeste 0 -- -- 93
2020-01-25 15:00:00 5.4 8 Sudoeste 14 Oeste 0 -- -- 94
2020-01-25 14:00:00 5.1 5 Sudoeste 14 Sudoeste 0 -- -- 95
2020-01-25 13:00:00 5.3 3 Sudoeste 10 Sur 0 -- -- 94
2020-01-25 12:00:00 4.4 4 Sudeste 12 Sur 0 -- -- 97
2020-01-25 11:00:00 3.9 0 Calma 4 Este 0 -- -- 100
2020-01-25 10:00:00 2.6 2 Noroeste 5 Noroeste 0 -- -- 100
2020-01-25 09:00:00 2.2 0 Calma 5 Norte 0 -- -- 100
2020-01-25 08:00:00 2 0 Calma 4 Norte 0 -- -- 100
2020-01-25 07:00:00 1.8 0 Calma 4 Este 0 -- -- 100
2020-01-25 06:00:00 1.8 0 Calma 5 Nordeste 0 -- -- 100
2020-01-25 05:00:00 2.1 0 Calma 4 Este 0 -- -- 99
2020-01-25 04:00:00 2.8 0 Calma 5 Este 0 -- -- 99
2020-01-25 03:00:00 3 3 Sudeste 8 Este 0 -- -- 100
2020-01-25 02:00:00 2.9 0 Calma 8 Este 0 -- -- 100
2020-01-25 01:00:00 2.9 2 Sudeste 4 Sudeste 0 -- -- 99
2020-01-25 00:00:00 3.1 0 Calma 8 Sur 0 -- -- 99
2020-01-24 23:00:00 3 2 Sudoeste 6 Sudoeste 0 -- -- 99
2020-01-24 22:00:00 2.9 0 Calma 3 Sur 0 -- -- 99
2020-01-24 21:00:00 3.2 0 Calma 5 Este 0 -- -- 99
2020-01-24 20:00:00 3.2 0 Calma 8 Este 0 -- -- 98
2020-01-24 19:00:00 3.6 3 Este 8 Este 0 -- -- 97
2020-01-24 18:00:00 4.4 5 Este 10 Este 0 -- -- 93
2020-01-24 17:00:00 5.7 4 Sur 12 Sudoeste 0 -- -- 87
2020-01-24 16:00:00 5.5 5 Sur 14 Sudoeste 0 -- -- 87
2020-01-24 15:00:00 5.5 8 Sudoeste 17 Sur 0 -- -- 88
2020-01-24 14:00:00 5 5 Sudeste 13 Sudoeste 0 -- -- 92
2020-01-24 13:00:00 3.9 5 Sur 13 Sudoeste 0 -- -- 96
2020-01-24 12:00:00 3.7 8 Sudoeste 19 Sudoeste 0 -- -- 96
2020-01-24 11:00:00 3.7 8 Sudoeste 21 Sudoeste 0 -- -- 98
2020-01-24 10:00:00 2.7 5 Sudoeste 14 Sudoeste 0 -- -- 100
2020-01-24 09:00:00 1.9 6 Sur 13 Sudoeste 0 -- -- 100
2020-01-24 08:00:00 2.1 2 Noroeste 14 Sudoeste 0 -- -- 100
2020-01-24 07:00:00 2.2 5 Sudoeste 12 Sudoeste 0 -- -- 100
2020-01-24 06:00:00 1.8 3 Sudeste 8 Sudeste 0 -- -- 100
2020-01-24 05:00:00 1.7 2 Este 7 Sudoeste 0 -- -- 100
2020-01-24 04:00:00 1.4 0 Calma 4 Sudeste 0 -- -- 99
2020-01-24 03:00:00 1.6 3 Este 8 Sudeste 0 -- -- 99
2020-01-24 02:00:00 2.3 3 Este 9 Sur 0 -- -- 100
2020-01-24 01:00:00 1.1 4 Este 7 Sudeste 0 -- -- 99
2020-01-24 00:00:00 1.6 3 Este 7 Sudeste 0 -- -- 99
2020-01-23 23:00:00 1.6 4 Este 8 Sudeste 0 -- -- 100
2020-01-23 22:00:00 0.6 0 Calma 4 Nordeste 0 -- -- 98
2020-01-23 21:00:00 0.5 0 Calma 3 Este 0 -- -- 96
2020-01-23 20:00:00 1.3 2 Sur 5 Este 0 -- -- 95
2020-01-23 19:00:00 2.7 2 Nordeste 11 Sudeste 0 -- -- 94
2020-01-23 18:00:00 3.6 6 Este 14 Este 0 -- -- 93
2020-01-23 17:00:00 4.8 6 Este 14 Este 0 -- -- 91
2020-01-23 16:00:00 5.8 3 Sur 9 Sur 0 -- -- 86
2020-01-23 15:00:00 4.9 0 Calma 11 Sur 0 -- -- 88
2020-01-23 14:00:00 5 5 Sudoeste 9 Sur 0 -- -- 89
2020-01-23 13:00:00 4.1 0 Calma 10 Sur 0 -- -- 92
2020-01-23 12:00:00 3.8 3 Sur 8 Sudoeste 0 -- -- 97
2020-01-23 11:00:00 3 2 Sudoeste 5 Oeste 0 -- -- 100
2020-01-23 10:00:00 1.6 0 Calma 4 Nordeste 0 -- -- 100
2020-01-23 09:00:00 1.1 0 Calma 7 Sudeste 0 -- -- 100
2020-01-23 08:00:00 0.8 0 Calma 5 Nordeste 0 -- -- 100
2020-01-23 07:00:00 0.6 0 Calma 6 Sudeste 0 -- -- 100
2020-01-23 06:00:00 -0.2 0 Calma 6 Este 0 -- -- 100
2020-01-23 05:00:00 -0.7 2 Este 6 Este 0 -- -- 99
2020-01-23 04:00:00 -0.6 0 Calma 7 Este 0 -- -- 98
2020-01-23 03:00:00 0.3 0 Calma 5 Este 0 -- -- 98
2020-01-23 02:00:00 1.4 0 Calma 4 Este 0 -- -- 98
2020-01-23 01:00:00 1.7 0 Calma 4 Nordeste 0 -- -- 98
2020-01-23 00:00:00 1.8 0 Calma 4 Este 0 -- -- 98
2020-01-22 23:00:00 1.7 0 Calma 4 Sudeste 0 -- -- 97
2020-01-22 22:00:00 2.2 2 Este 5 Sudoeste 0 -- -- 96
2020-01-22 21:00:00 3.1 0 Calma 21 Este 0 -- -- 97
2020-01-22 20:00:00 3 4 Este 22 Nordeste 0 -- -- 97
2020-01-22 19:00:00 3.3 6 Nordeste 13 Este 0 -- -- 94
2020-01-22 18:00:00 4.6 5 Este 21 Este 0 -- -- 87
2020-01-22 17:00:00 6 4 Nordeste 10 Nordeste 0 -- -- 86
2020-01-22 16:00:00 6.5 3 Nordeste 10 Este 0 -- -- 83
2020-01-22 15:00:00 6 3 Norte 8 Este 0 -- -- 88
2020-01-22 14:00:00 5.8 3 Sudoeste 10 Sudeste 0 -- -- 86
2020-01-22 13:00:00 5.5 2 Sur 5 Oeste 0 -- -- 94
2020-01-22 12:00:00 4.2 0 Calma 11 Este 0 -- -- 98
2020-01-22 11:00:00 3.4 3 Este 6 Este 0 -- -- 100
2020-01-22 10:00:00 2.4 2 Oeste 4 Oeste 0 -- -- 100
2020-01-22 09:00:00 1.8 0 Calma 4 Sudeste 0 -- -- 100
2020-01-22 08:00:00 1.8 0 Calma 7 Norte 0 -- -- 100
2020-01-22 07:00:00 1.8 3 Sur 17 Nordeste 0 -- -- 100
2020-01-22 06:00:00 1.7 2 Nordeste 9 Este 0 -- -- 100
2020-01-22 05:00:00 1.7 4 Este 27 Sudeste 0 -- -- 100
2020-01-22 04:00:00 1.8 8 Este 25 Nordeste 0 -- -- 100
2020-01-22 03:00:00 1.8 5 Sudoeste 19 Norte 0 -- -- 100
2020-01-22 02:00:00 1.7 7 Sur 27 Norte 0 -- -- 100
2020-01-22 01:00:00 1.6 7 Noroeste 28 Nordeste 0 -- -- 100
2020-01-22 00:00:00 1.3 5 Oeste 29 Este 0 -- -- 100
2020-01-21 23:00:00 1.2 8 Nordeste 31 Este 0 -- -- 100
2020-01-21 22:00:00 1 7 Oeste 36 Nordeste 0 -- -- 100
2020-01-21 21:00:00 0.7 17 Nordeste 37 Norte 0 -- -- 100
2020-01-21 20:00:00 0 10 Nordeste 35 Nordeste 0 -- -- 100
2020-01-21 19:00:00 -0.4 10 Nordeste 30 Nordeste 0 -- -- 100
2020-01-21 18:00:00 -0.5 14 Norte 41 Noroeste 0 -- -- 99
2020-01-21 17:00:00 -0.2 14 Nordeste 31 Nordeste 0 -- -- 99
2020-01-21 16:00:00 -0.2 12 Este 28 Este 0 -- -- 99
2020-01-21 15:00:00 -0.1 8 Nordeste 41 Norte 0 -- -- 98
2020-01-21 14:00:00 0.1 11 Norte 39 Noroeste 1.4 -- -- 98
2020-01-21 13:00:00 0 8 Sudoeste 27 Noroeste 0 -- -- 97
2020-01-21 12:00:00 0.2 11 Nordeste 30 Este 0 -- -- 94
2020-01-21 11:00:00 0.1 8 Oeste 27 Noroeste 0 -- -- 94
2020-01-21 10:00:00 0 9 Oeste 36 Noroeste 0 -- -- 92
2020-01-21 09:00:00 -0.1 8 Norte 39 Norte 0 -- -- 88
2020-01-21 08:00:00 -0.3 10 Sudeste 30 Norte 0 -- -- 88
2020-01-21 07:00:00 -0.6 6 Sudoeste 21 Sudoeste 0 -- -- 86
2020-01-21 06:00:00 -0.7 9 Sudoeste 24 Oeste 0 -- -- 83
2020-01-21 05:00:00 -0.7 9 Este 29 Este 0 -- -- 82
2020-01-21 04:00:00 -0.9 6 Sur 30 Este 0 -- -- 84
2020-01-21 03:00:00 -0.8 7 Noroeste 31 Sur 0 -- -- 83
2020-01-21 02:00:00 -0.9 9 Este 33 Este 0 -- -- 83
2020-01-21 01:00:00 -1.2 7 Sudeste 23 Noroeste 0 -- -- 84
2020-01-21 00:00:00 -0.9 8 Oeste 25 Sudeste 0 -- -- 85
2020-01-20 23:00:00 -0.5 5 Sudeste 32 Nordeste 0 -- -- 87
2020-01-20 22:00:00 -0.7 7 Noroeste 26 Este 0 -- -- 89
2020-01-20 21:00:00 -0.9 14 Este 36 Este 0 -- -- 87
2020-01-20 20:00:00 -1.4 9 Oeste 34 Este 0 -- -- 89
2020-01-20 19:00:00 -1.7 8 Sudeste 28 Oeste 0 -- -- 85
2020-01-20 18:00:00 -1.7 11 Oeste 26 Sudeste 0 -- -- 83
2020-01-20 17:00:00 -1.3 6 Noroeste 39 Norte 0 -- -- 83
2020-01-20 16:00:00 -0.8 14 Noroeste 28 Noroeste 0 -- -- 81
2020-01-20 15:00:00 -0.8 8 Norte 23 Noroeste 0 -- -- 83
2020-01-20 14:00:00 -1 7 Sudoeste 28 Oeste 0 -- -- 85
2020-01-20 13:00:00 -1.3 12 Noroeste 32 Norte 0 -- -- 86
2020-01-20 12:00:00 -1 8 Noroeste 27 Este 0 -- -- 81
2020-01-20 11:00:00 -1.2 11 Noroeste 25 Noroeste 0 -- -- 84
2020-01-20 10:00:00 -1.5 10 Oeste 20 Norte 0 -- -- 87
2020-01-20 09:00:00 -1.5 7 Noroeste 34 Sudeste 0 -- -- 80
2020-01-20 08:00:00 -1.6 18 Oeste 37 Noroeste 0 -- -- 81
2020-01-20 07:00:00 -1.5 10 Oeste 38 Norte 0 -- -- 84
2020-01-20 06:00:00 -1.4 17 Noroeste 54 Noroeste 0 -- -- 83
2020-01-20 05:00:00 -1.3 23 Noroeste 49 Oeste 0 -- -- 81
2020-01-20 04:00:00 -1.1 11 Sudoeste 30 Oeste 0 -- -- 81
2020-01-20 03:00:00 -0.9 11 Sudoeste 40 Sudeste 0 -- -- 81
2020-01-20 02:00:00 -0.8 13 Sudeste 39 Este 0 -- -- 82
2020-01-20 01:00:00 -0.7 13 Sudoeste 34 Sudoeste 0 -- -- 80
2020-01-20 00:00:00 -0.4 15 Oeste 44 Sur 0 -- -- 78
2020-01-19 23:00:00 -0.2 16 Oeste 41 Oeste 0 -- -- 78
2020-01-19 22:00:00 0.2 19 Noroeste 43 Noroeste 0 -- -- 78
2020-01-19 21:00:00 0.4 19 Oeste 46 Oeste 0 -- -- 79
2020-01-19 20:00:00 0.4 22 Noroeste 49 Noroeste 0 -- -- 76
2020-01-19 19:00:00 0.4 23 Noroeste 47 Noroeste 0 -- -- 83
2020-01-19 18:00:00 0.4 22 Noroeste 52 Norte 0 -- -- 82
2020-01-19 17:00:00 1.1 24 Noroeste 59 Norte 0 -- -- 79
2020-01-19 16:00:00 1.5 32 Noroeste 66 Norte 0 -- -- 78
2020-01-19 15:00:00 1.5 28 Noroeste 71 Norte 0 -- -- 81
2020-01-19 14:00:00 1.6 25 Noroeste 58 Noroeste 0 -- -- 85
2020-01-19 13:00:00 1.6 28 Noroeste 58 Noroeste 0 -- -- 84
2020-01-19 12:00:00 1.5 23 Noroeste 57 Noroeste 0 -- -- 87
2020-01-19 11:00:00 1.6 24 Noroeste 57 Norte 0 -- -- 89
2020-01-19 10:00:00 1.4 35 Norte 66 Noroeste 0 -- -- 91
2020-01-19 09:00:00 1.4 30 Noroeste 56 Noroeste 0.2 -- -- 95
2020-01-19 08:00:00 1.1 11 Noroeste 40 Noroeste 1.2 -- -- 99
2020-01-19 07:00:00 1.3 15 Noroeste 51 Oeste 1 -- -- 99
2020-01-19 06:00:00 1.7 30 Noroeste 61 Noroeste 0.6 -- -- 99
2020-01-19 05:00:00 2.5 22 Noroeste 44 Oeste 0.2 -- -- 98
2020-01-19 04:00:00 3.1 20 Noroeste 36 Noroeste 1 -- -- 98
2020-01-19 03:00:00 2.8 9 Norte 20 Norte 0.6 -- -- 99
2020-01-19 02:00:00 2.4 4 Noroeste 12 Norte 0 -- -- 100
2020-01-19 01:00:00 1.2 0 Calma 6 Nordeste 0 -- -- 99
2020-01-19 00:00:00 0.3 3 Norte 6 Nordeste 0 -- -- 98
2020-01-18 23:00:00 0.9 3 Este 5 Este 0 -- -- 98
2020-01-18 22:00:00 0.1 0 Calma 6 Nordeste 0 -- -- 97
2020-01-18 21:00:00 0.7 2 Noroeste 8 Oeste 0.2 -- -- 96
2020-01-18 20:00:00 1.5 3 Norte 21 Norte 3.6 -- -- 94
2020-01-18 19:00:00 3.4 4 Norte 40 Norte 1.8 -- -- 94
2020-01-18 18:00:00 3.8 7 Norte 23 Sudeste 2.4 -- -- 98
2020-01-18 17:00:00 4.7 9 Este 15 Sudeste 2.6 -- -- 94
2020-01-18 16:00:00 6.6 6 Sur 47 Sur 1 -- -- 94
2020-01-18 15:00:00 6.6 23 Sur 48 Sur 0 -- -- 89
2020-01-18 14:00:00 6.2 16 Sur 33 Sur 0 -- -- 83
2020-01-18 13:00:00 6.1 15 Sudoeste 37 Sudoeste 0 -- -- 77
2020-01-18 12:00:00 6 14 Sur 46 Sudoeste 0 -- -- 74
2020-01-18 11:00:00 6.3 19 Sudoeste 46 Oeste 0 -- -- 72
2020-01-18 10:00:00 4.4 18 Sur 48 Sur 0 -- -- 77
2020-01-18 09:00:00 3.9 19 Sur 41 Sudoeste 0 -- -- 78
2020-01-18 08:00:00 3.5 17 Sudoeste 35 Sur 0 -- -- 80
2020-01-18 07:00:00 3.8 11 Sur 26 Sudoeste 0 -- -- 77
2020-01-18 06:00:00 3.6 11 Sudoeste 28 Sudoeste 0 -- -- 78
2020-01-18 05:00:00 3.7 14 Sudoeste 32 Sur 0 -- -- 77
2020-01-18 04:00:00 2 6 Oeste 18 Sudoeste 0 -- -- 91
2020-01-18 03:00:00 0.5 3 Este 8 Este 0 -- -- 95
2020-01-18 02:00:00 -0.2 3 Nordeste 8 Este 0 -- -- 97
2020-01-18 01:00:00 -0.7 3 Este 8 Nordeste 0 -- -- 96
2020-01-18 00:00:00 -0.5 0 Calma 6 Norte 0 -- -- 93
2020-01-17 23:00:00 0 3 Nordeste 6 Norte 0 -- -- 90
2020-01-17 22:00:00 1.2 3 Nordeste 5 Nordeste 0 -- -- 89
2020-01-17 21:00:00 2.5 2 Sudoeste 6 Sudeste 0 -- -- 83
2020-01-17 20:00:00 3.6 0 Calma 10 Nordeste 0 -- -- 81
2020-01-17 19:00:00 4.2 3 Nordeste 15 Nordeste 0 -- -- 78
2020-01-17 18:00:00 4.9 3 Oeste 19 Nordeste 0 -- -- 75
2020-01-17 17:00:00 7 5 Nordeste 15 Norte 0 -- -- 68
2020-01-17 16:00:00 8.8 9 Noroeste 17 Noroeste 0 -- -- 66
2020-01-17 15:00:00 8.2 10 Noroeste 19 Oeste 0 -- -- 69
2020-01-17 14:00:00 8 10 Noroeste 22 Noroeste 0 -- -- 70
2020-01-17 13:00:00 7.3 12 Noroeste 20 Oeste 0 -- -- 75
2020-01-17 12:00:00 6.1 8 Noroeste 14 Noroeste 0 -- -- 80
2020-01-17 11:00:00 5.9 8 Noroeste 20 Noroeste 0 -- -- 78
2020-01-17 10:00:00 5.3 10 Noroeste 35 Oeste 0 -- -- 75
2020-01-17 09:00:00 5.4 7 Sudoeste 24 Sudoeste 0 -- -- 86
2020-01-17 08:00:00 5.5 12 Oeste 31 Noroeste 0 -- -- 86
2020-01-17 07:00:00 5.8 13 Oeste 33 Noroeste 0 -- -- 85
2020-01-17 06:00:00 5.9 7 Sudoeste 25 Este 0 -- -- 91
2020-01-17 05:00:00 6.2 7 Sur 34 Sur 0 -- -- 86
2020-01-17 04:00:00 6.4 16 Sudoeste 35 Sudoeste 0 -- -- 85
2020-01-17 03:00:00 6.5 23 Sudoeste 38 Sudoeste 0 -- -- 83
2020-01-17 02:00:00 6.7 13 Oeste 37 Sur 0 -- -- 80
2020-01-17 01:00:00 7 19 Sur 44 Sudeste 0 -- -- 78
2020-01-17 00:00:00 6.8 13 Sudoeste 40 Sudoeste 0 -- -- 78
2020-01-16 23:00:00 7.3 17 Sur 57 Sur 0 -- -- 75
2020-01-16 22:00:00 8.6 16 Sur 48 Sur 0 -- -- 65
2020-01-16 21:00:00 9 21 Sudoeste 51 Noroeste 0 -- -- 66
2020-01-16 20:00:00 10 17 Sur 58 Sur 0 -- -- 66
2020-01-16 19:00:00 10.3 20 Sur 49 Sur 0 -- -- 65
2020-01-16 18:00:00 10.8 21 Sur 46 Sur 0 -- -- 58
2020-01-16 17:00:00 11.8 18 Sur 63 Sudoeste 0 -- -- 57
2020-01-16 16:00:00 11.6 22 Sur 63 Sur 0 -- -- 62
2020-01-16 15:00:00 11.5 17 Sur 59 Sudeste 0 -- -- 68
2020-01-16 14:00:00 10.7 19 Sur 53 Sur 0 -- -- 73
2020-01-16 13:00:00 10.1 21 Sudoeste 48 Sur 0 -- -- 76
2020-01-16 12:00:00 9.8 22 Sudoeste 50 Sur 0 -- -- 78
2020-01-16 11:00:00 8.7 11 Sudoeste 31 Sur 0 -- -- 82
2020-01-16 10:00:00 8.3 13 Sur 44 Sudoeste 0 -- -- 82
2020-01-16 09:00:00 8.1 19 Sudoeste 44 Sur 0 -- -- 84
2020-01-16 08:00:00 8.2 14 Sudoeste 41 Sudoeste 0 -- -- 82
2020-01-16 07:00:00 8.5 24 Sudoeste 54 Sudoeste 0 -- -- 80
2020-01-16 06:00:00 8.6 21 Sur 44 Sudoeste 0 -- -- 80
2020-01-16 05:00:00 8.7 18 Sur 45 Sudoeste 0 -- -- 82
2020-01-16 04:00:00 8.5 22 Sudoeste 50 Sudoeste 0 -- -- 86
2020-01-16 03:00:00 8.3 22 Sudoeste 44 Sudoeste 0 -- -- 89
2020-01-16 02:00:00 7.6 9 Sudoeste 46 Sudoeste 0 -- -- 92
2020-01-16 01:00:00 7.4 27 Sudoeste 54 Sur 0 -- -- 91
2020-01-16 00:00:00 7.7 22 Sur 48 Sur 0 -- -- 88
2020-01-15 23:00:00 7.7 15 Sur 45 Sudoeste 0 -- -- 88
2020-01-15 22:00:00 7.6 13 Sudoeste 37 Sudoeste 0 -- -- 86
2020-01-15 21:00:00 7.4 15 Sudoeste 34 Sur 0 -- -- 86
2020-01-15 20:00:00 7.6 9 Sur 34 Sur 0 -- -- 84
2020-01-15 19:00:00 7.4 12 Sur 26 Sur 0 -- -- 83
2020-01-15 18:00:00 7.5 10 Sudoeste 32 Sur 0 -- -- 82
2020-01-15 17:00:00 7.9 14 Sudoeste 38 Sudoeste 0 -- -- 83
2020-01-15 16:00:00 8 18 Sudoeste 35 Sur 0 -- -- 81
2020-01-15 15:00:00 8.6 6 Este 39 Sudoeste 0 -- -- 76
2020-01-15 14:00:00 8.7 18 Sudoeste 51 Sur 0 -- -- 75
2020-01-15 13:00:00 8 30 Sudoeste 59 Sur 0 -- -- 76
2020-01-15 12:00:00 7.5 17 Sur 55 Sur 0 -- -- 75
2020-01-15 11:00:00 7.2 9 Sur 30 Sudeste 0 -- -- 75
2020-01-15 10:00:00 7.2 9 Sudeste 27 Sur 0 -- -- 74
2020-01-15 09:00:00 7 9 Sudoeste 45 Sur 0 -- -- 73
2020-01-15 08:00:00 6.7 11 Sur 43 Sur 0 -- -- 74
2020-01-15 07:00:00 6.4 19 Sur 45 Sur 0 -- -- 77
2020-01-15 06:00:00 6.5 13 Sur 45 Sur 0 -- -- 80
2020-01-15 05:00:00 6.5 17 Sur 57 Sur 0 -- -- 82
2020-01-15 04:00:00 6.3 22 Sur 58 Sudoeste 0 -- -- 82
2020-01-15 03:00:00 6.2 23 Sudoeste 69 Sudoeste 0 -- -- 84
2020-01-15 02:00:00 6.5 22 Sur 67 Sur 0 -- -- 81
2020-01-15 01:00:00 6.2 23 Sur 53 Sur 0 -- -- 84
2020-01-15 00:00:00 5.9 18 Sudeste 47 Sur 0 -- -- 83
2020-01-14 23:00:00 5.7 19 Sudoeste 60 Sudoeste 0 -- -- 82
2020-01-14 22:00:00 6 31 Sudoeste 64 Sudoeste 0 -- -- 78
2020-01-14 21:00:00 6.5 27 Sudoeste 56 Sur 0 -- -- 76
2020-01-14 20:00:00 6.5 32 Sudoeste 59 Sudoeste 0 -- -- 73
2020-01-14 19:00:00 6.3 33 Sudoeste 59 Sudoeste 0 -- -- 73
2020-01-14 18:00:00 6.7 24 Sudoeste 58 Sudoeste 0 -- -- 71
2020-01-14 17:00:00 7.2 24 Sudoeste 51 Sudoeste 0 -- -- 71
2020-01-14 16:00:00 6.8 22 Sudoeste 50 Sur 0 -- -- 72
2020-01-14 15:00:00 6.1 21 Sudoeste 59 Sur 0 -- -- 75
2020-01-14 14:00:00 5.3 37 Sudoeste 72 Sudoeste 0 -- -- 77
2020-01-14 13:00:00 4.9 31 Sudoeste 67 Sudoeste 0 -- -- 80
2020-01-14 12:00:00 4.5 34 Sudoeste 70 Sudoeste 0 -- -- 83
2020-01-14 11:00:00 3.2 12 Sur 60 Oeste 0 -- -- 90
2020-01-14 10:00:00 2.6 32 Sudoeste 69 Sudoeste 0 -- -- 93
2020-01-14 09:00:00 2.5 31 Sudoeste 58 Sudoeste 0 -- -- 94
2020-01-14 08:00:00 2.6 25 Sudoeste 49 Sudoeste 0 -- -- 94
2020-01-14 07:00:00 2.4 25 Sudoeste 55 Sudoeste 0 -- -- 93
2020-01-14 06:00:00 2.6 28 Sudoeste 60 Sudoeste 0 -- -- 91
2020-01-14 05:00:00 2.5 28 Sudoeste 57 Sudoeste 0 -- -- 91
2020-01-14 04:00:00 2.7 29 Sudoeste 52 Sudoeste 0 -- -- 89
2020-01-14 03:00:00 2.6 19 Sur 57 Sur 0 -- -- 86
2020-01-14 02:00:00 2.6 23 Sudoeste 65 Sudoeste 0 -- -- 85
2020-01-14 01:00:00 2.7 24 Sudoeste 49 Sudoeste 0 -- -- 82
2020-01-14 00:00:00 2.4 15 Sudoeste 58 Sudoeste 0 -- -- 82
2020-01-13 23:00:00 1.8 12 Sudoeste 46 Sur 0 -- -- 85
2020-01-13 22:00:00 1.7 22 Sudoeste 52 Sudoeste 0 -- -- 83
2020-01-13 21:00:00 2 22 Sudoeste 54 Sudoeste 0 -- -- 79
2020-01-13 20:00:00 2.1 17 Sudoeste 40 Sudoeste 0 -- -- 69
2020-01-13 19:00:00 2.5 18 Sudoeste 44 Sudoeste 0 -- -- 65
2020-01-13 18:00:00 3.5 18 Sudoeste 56 Sudoeste 0 -- -- 71
2020-01-13 17:00:00 4.9 21 Sudoeste 53 Sur 0 -- -- 67
2020-01-13 16:00:00 6 24 Sudoeste 49 Sur 0 -- -- 56
2020-01-13 15:00:00 6.7 16 Sudoeste 35 Sur 0 -- -- 52
2020-01-13 14:00:00 5.2 21 Sudoeste 46 Sudoeste 0 -- -- 70
2020-01-13 13:00:00 4 24 Sudoeste 41 Sudoeste 0 -- -- 76
2020-01-13 12:00:00 3.6 27 Sudoeste 41 Sudoeste 0 -- -- 77
2020-01-13 11:00:00 2.8 21 Sudoeste 40 Sudoeste 0 -- -- 82
2020-01-13 10:00:00 1.6 14 Sudoeste 27 Sudoeste 0 -- -- 93
2020-01-13 09:00:00 -0.7 2 Sudoeste 9 Este 0 -- -- 98
2020-01-13 08:00:00 -1.2 5 Nordeste 8 Nordeste 0 -- -- 97
2020-01-13 07:00:00 -0.4 0 Calma 9 Sudeste 0 -- -- 95
2020-01-13 06:00:00 1.2 5 Sudeste 13 Sudeste 0 -- -- 96
2020-01-13 05:00:00 -0.4 4 Sudeste 11 Este 0 -- -- 100
2020-01-13 04:00:00 0.5 4 Sudeste 8 Sudeste 0 -- -- 99
2020-01-13 03:00:00 -1.3 2 Sur 5 Nordeste 0 -- -- 97
2020-01-13 02:00:00 -0.8 3 Este 5 Este 0 -- -- 99
2020-01-13 01:00:00 -0.8 3 Este 5 Nordeste 0 -- -- 97
2020-01-13 00:00:00 -0.4 0 Calma 5 Nordeste 0 -- -- 96
2020-01-12 23:00:00 -0.4 3 Nordeste 5 Nordeste 0 -- -- 96
2020-01-12 22:00:00 0.2 2 Nordeste 5 Nordeste 0 -- -- 95
2020-01-12 21:00:00 1.1 3 Nordeste 7 Nordeste 0 -- -- 93
2020-01-12 20:00:00 1.7 3 Nordeste 5 Norte 0 -- -- 91
2020-01-12 19:00:00 3.3 3 Nordeste 5 Nordeste 0 -- -- 87
2020-01-12 18:00:00 6.2 2 Sur 14 Nordeste 0 -- -- 78
2020-01-12 17:00:00 9.4 6 Nordeste 25 Norte 0 -- -- 68
2020-01-12 16:00:00 9.8 12 Norte 27 Noroeste 0 -- -- 71
2020-01-12 15:00:00 10 12 Noroeste 22 Norte 0 -- -- 73
2020-01-12 14:00:00 9.9 4 Norte 19 Noroeste 0 -- -- 70
2020-01-12 13:00:00 8.3 4 Oeste 8 Oeste 0 -- -- 63
2020-01-12 12:00:00 4.2 0 Calma 4 Sudeste 0 -- -- 83
2020-01-12 11:00:00 1.3 0 Calma 3 Sudeste 0 -- -- 85
2020-01-12 10:00:00 -3.9 0 Calma 3 Sur 0 -- -- 95
2020-01-12 09:00:00 -4.6 0 Calma 4 Nordeste 0 -- -- 93
2020-01-12 08:00:00 -4.3 4 Este 5 Este 0 -- -- 94
2020-01-12 07:00:00 -4.3 3 Norte 5 Norte 0 -- -- 94
2020-01-12 06:00:00 -4.3 2 Nordeste 4 Nordeste 0 -- -- 95
2020-01-12 05:00:00 -3.9 0 Calma 4 Este 0 -- -- 95
2020-01-12 04:00:00 -3.3 2 Nordeste 5 Nordeste 0 -- -- 94
2020-01-12 03:00:00 -3 3 Este 4 Este 0 -- -- 96
2020-01-12 02:00:00 -2.8 0 Calma 4 Este 0 -- -- 96
2020-01-12 01:00:00 -2.4 3 Sudeste 6 Este 0 -- -- 96
2020-01-12 00:00:00 -2.4 0 Calma 4 Este 0 -- -- 95
2020-01-11 23:00:00 -2 0 Calma 4 Este 0 -- -- 94
2020-01-11 22:00:00 -1.4 2 Este 4 Este 0 -- -- 93
2020-01-11 21:00:00 -1.1 0 Calma 5 Este 0 -- -- 92
2020-01-11 20:00:00 -0.4 2 Este 6 Este 0 -- -- 90
2020-01-11 19:00:00 1 3 Nordeste 5 Nordeste 0 -- -- 88
2020-01-11 18:00:00 3.6 0 Calma 4 Noroeste 0 -- -- 83
2020-01-11 17:00:00 8 3 Sudoeste 9 Sur 0 -- -- 69
2020-01-11 16:00:00 8.4 6 Sudoeste 12 Sur 0 -- -- 69
2020-01-11 15:00:00 7.4 5 Sur 14 Sur 0 -- -- 71
2020-01-11 14:00:00 6.7 7 Sur 14 Sudeste 0 -- -- 75
2020-01-11 13:00:00 6.1 7 Sur 14 Sur 0 -- -- 79
2020-01-11 12:00:00 4.8 6 Sur 10 Sur 0 -- -- 86
2020-01-11 11:00:00 2.4 2 Oeste 4 Oeste 0 -- -- 98
2020-01-11 10:00:00 -0.2 3 Este 5 Sudeste 0 -- -- 100
2020-01-11 09:00:00 -0.6 0 Calma 5 Nordeste 0 -- -- 99
2020-01-11 08:00:00 -0.6 2 Nordeste 6 Norte 0 -- -- 99
2020-01-11 07:00:00 0.3 0 Calma 5 Sudeste 0 -- -- 99
2020-01-11 06:00:00 0 2 Sudeste 4 Nordeste 0 -- -- 100
2020-01-11 05:00:00 -0.1 0 Calma 8 Este 0 -- -- 99
2020-01-11 04:00:00 -0.7 2 Norte 6 Sur 0 -- -- 99
2020-01-11 03:00:00 -1.3 4 Este 9 Sudeste 0 -- -- 99
2020-01-11 02:00:00 -1.4 2 Nordeste 6 Nordeste 0 -- -- 97
2020-01-11 01:00:00 -0.7 0 Calma 8 Norte 0 -- -- 96
2020-01-11 00:00:00 -0.1 2 Sudeste 8 Nordeste 0 -- -- 96
2020-01-10 23:00:00 1.3 4 Este 10 Este 0 -- -- 94
2020-01-10 22:00:00 2.4 4 Sudeste 17 Nordeste 0 -- -- 94
2020-01-10 21:00:00 2.9 6 Este 39 Norte 0 -- -- 93
2020-01-10 20:00:00 3 20 Norte 36 Noroeste 0 -- -- 90
2020-01-10 19:00:00 3 13 Norte 28 Norte 0 -- -- 88
2020-01-10 18:00:00 3.3 18 Norte 37 Noroeste 0.2 -- -- 92
2020-01-10 17:00:00 4 13 Noroeste 30 Noroeste 0.2 -- -- 93
2020-01-10 16:00:00 4.1 15 Norte 31 Norte 0.2 -- -- 94
2020-01-10 15:00:00 4.4 15 Norte 28 Norte 0 -- -- 92
2020-01-10 14:00:00 4.4 5 Norte 20 Norte 0 -- -- 94
2020-01-10 13:00:00 4.4 8 Norte 24 Norte 0 -- -- 92
2020-01-10 12:00:00 4.6 11 Noroeste 22 Noroeste 0 -- -- 90
2020-01-10 11:00:00 3.2 9 Noroeste 22 Norte 0 -- -- 92
2020-01-10 10:00:00 2.3 5 Noroeste 13 Norte 0 -- -- 94
2020-01-10 09:00:00 1.7 7 Noroeste 18 Oeste 0 -- -- 94
2020-01-10 08:00:00 1.7 9 Norte 17 Noroeste 0 -- -- 92
2020-01-10 07:00:00 1.2 8 Norte 17 Norte 0 -- -- 94
2020-01-10 06:00:00 1.9 7 Noroeste 24 Oeste 0 -- -- 94
2020-01-10 05:00:00 2.3 7 Noroeste 15 Noroeste 0 -- -- 96
2020-01-10 04:00:00 2 5 Noroeste 13 Oeste 0 -- -- 96
2020-01-10 03:00:00 1.5 4 Noroeste 16 Noroeste 0 -- -- 93
2020-01-10 02:00:00 1.9 6 Noroeste 29 Norte 0 -- -- 91
2020-01-10 01:00:00 1.5 3 Oeste 9 Norte 0 -- -- 93
2020-01-10 00:00:00 3 7 Noroeste 34 Noroeste 0 -- -- 91
2020-01-09 23:00:00 4.8 7 Noroeste 18 Noroeste 0 -- -- 95
2020-01-09 22:00:00 5.2 4 Norte 12 Nordeste 0 -- -- 96
2020-01-09 21:00:00 5.5 0 Calma 9 Norte 0.4 -- -- 96
2020-01-09 20:00:00 5.9 2 Norte 8 Oeste 1.2 -- -- 95
2020-01-09 19:00:00 6.3 4 Sur 19 Sudoeste 0 -- -- 92
2020-01-09 18:00:00 7 11 Sudoeste 30 Sudoeste 0 -- -- 85
2020-01-09 17:00:00 7.1 17 Sudoeste 35 Sudoeste 0 -- -- 83
2020-01-09 16:00:00 7.2 28 Sudoeste 46 Sudoeste 0 -- -- 81
2020-01-09 15:00:00 8.5 29 Sudoeste 57 Sudoeste 0 -- -- 76
2020-01-09 14:00:00 8.8 15 Sur 36 Sur 0 -- -- 70
2020-01-09 13:00:00 8.6 23 Sudoeste 44 Sur 0 -- -- 69
2020-01-09 12:00:00 7.8 24 Sudoeste 62 Sudoeste 0 -- -- 75
2020-01-09 11:00:00 6.6 14 Sudoeste 47 Sudoeste 0 -- -- 79
2020-01-09 10:00:00 5.3 22 Sudoeste 38 Sudoeste 0 -- -- 81
2020-01-09 09:00:00 4.6 15 Sudoeste 32 Sur 0 -- -- 86
2020-01-09 08:00:00 4.3 6 Sur 26 Sudoeste 0 -- -- 88
2020-01-09 07:00:00 2.9 7 Sudoeste 21 Sur 0 -- -- 98
2020-01-09 06:00:00 2.4 5 Nordeste 21 Este 0 -- -- 89
2020-01-09 05:00:00 4 2 Sur 18 Sur 0 -- -- 96
2020-01-09 04:00:00 2.1 3 Sudeste 11 Sudeste 0 -- -- 100
2020-01-09 03:00:00 1.6 4 Este 10 Este 0 -- -- 98
2020-01-09 02:00:00 1.4 2 Sur 6 Oeste 0 -- -- 97
2020-01-09 01:00:00 1.8 3 Este 5 Sudeste 0 -- -- 97
2020-01-09 00:00:00 2.5 2 Sudeste 5 Nordeste 0 -- -- 98
2020-01-08 23:00:00 3 2 Nordeste 4 Norte 0 -- -- 96
2020-01-08 22:00:00 3.2 0 Calma 6 Este 0 -- -- 93
2020-01-08 21:00:00 4.5 0 Calma 6 Nordeste 0 -- -- 93
2020-01-08 20:00:00 5.3 2 Nordeste 5 Nordeste 0 -- -- 90
2020-01-08 19:00:00 6.6 2 Norte 6 Nordeste 0 -- -- 86
2020-01-08 18:00:00 9.1 0 Calma 3 Sur 0 -- -- 78
2020-01-08 17:00:00 13.5 3 Sudoeste 11 Sudoeste 0 -- -- 66
2020-01-08 16:00:00 14.1 5 Sudoeste 10 Sur 0 -- -- 66
2020-01-08 15:00:00 13.5 3 Sur 10 Este 0 -- -- 68
2020-01-08 14:00:00 13.7 5 Sudeste 12 Este 0 -- -- 67
2020-01-08 13:00:00 13.4 3 Este 11 Sudeste 0 -- -- 69
2020-01-08 12:00:00 11.9 5 Nordeste 12 Nordeste 0 -- -- 77
2020-01-08 11:00:00 9.2 3 Nordeste 10 Norte 0 -- -- 100
2020-01-08 10:00:00 4.4 0 Calma 4 Norte 0 -- -- 100
2020-01-08 09:00:00 2.2 0 Calma 5 Sudeste 0 -- -- 100
2020-01-08 08:00:00 1.8 0 Calma 6 Nordeste 0 -- -- 99
2020-01-08 07:00:00 2.1 2 Este 4 Este 0 -- -- 99
2020-01-08 06:00:00 2 0 Calma 4 Nordeste 0 -- -- 99
2020-01-08 05:00:00 2.1 0 Calma 3 Nordeste 0 -- -- 98
2020-01-08 04:00:00 2.4 0 Calma 4 Este 0 -- -- 98
2020-01-08 03:00:00 2.4 0 Calma 4 Sudeste 0 -- -- 98
2020-01-08 02:00:00 2.5 0 Calma 3 Este 0 -- -- 98
2020-01-08 01:00:00 2.8 0 Calma 4 Este 0 -- -- 98
2020-01-08 00:00:00 2.7 0 Calma 3 Este 0 -- -- 97
2020-01-07 23:00:00 2.9 0 Calma 4 Nordeste 0 -- -- 95
2020-01-07 22:00:00 3.3 4 Nordeste 6 Nordeste 0 -- -- 96
2020-01-07 21:00:00 3 0 Calma 6 Nordeste 0 -- -- 91
2020-01-07 20:00:00 3.6 2 Nordeste 5 Nordeste 0 -- -- 87
2020-01-07 19:00:00 4.9 0 Calma 4 Este 0 -- -- 81
2020-01-07 18:00:00 7.6 0 Calma 3 Este 0 -- -- 75
2020-01-07 17:00:00 12.6 0 Calma 5 Oeste 0 -- -- 60
2020-01-07 16:00:00 14.2 4 Oeste 7 Sudoeste 0 -- -- 59
2020-01-07 15:00:00 13.9 5 Sudoeste 11 Sudoeste 0 -- -- 61
2020-01-07 14:00:00 13.3 6 Sudoeste 10 Sudoeste 0 -- -- 62
2020-01-07 13:00:00 11.3 3 Sudoeste 6 Sur 0 -- -- 71
2020-01-07 12:00:00 7.5 3 Oeste 6 Oeste 0 -- -- 85
2020-01-07 11:00:00 3.7 2 Oeste 6 Sudeste 0 -- -- 99
2020-01-07 10:00:00 -0.4 0 Calma 3 Sudeste 0 -- -- 99
2020-01-07 09:00:00 -1.9 2 Sudeste 4 Sudeste 0 -- -- 98
2020-01-07 08:00:00 -2.2 0 Calma 4 Oeste 0 -- -- 96
2020-01-07 07:00:00 -2.2 0 Calma 3 Sudeste 0 -- -- 96
2020-01-07 06:00:00 -2.2 0 Calma 3 Sudeste 0 -- -- 95
2020-01-07 05:00:00 -2.4 0 Calma 5 Este 0 -- -- 95
2020-01-07 04:00:00 -2.4 0 Calma 4 Nordeste 0 -- -- 94
2020-01-07 03:00:00 -2.1 3 Este 5 Sudeste 0 -- -- 94
2020-01-07 02:00:00 -2 0 Calma 5 Sudeste 0 -- -- 94
2020-01-07 01:00:00 -2 0 Calma 4 Este 0 -- -- 91
2020-01-07 00:00:00 -1.3 3 Este 11 Nordeste 0 -- -- 92
2020-01-06 23:00:00 -0.3 2 Este 8 Nordeste 0 -- -- 89
2020-01-06 22:00:00 0.3 2 Sudeste 12 Este 0 -- -- 87
2020-01-06 21:00:00 1.2 5 Nordeste 8 Norte 0 -- -- 89
2020-01-06 20:00:00 1.1 4 Este 6 Este 0 -- -- 80
2020-01-06 19:00:00 3.1 4 Nordeste 8 Norte 0 -- -- 75
2020-01-06 18:00:00 5.9 3 Nordeste 6 Sudeste 0 -- -- 68
2020-01-06 17:00:00 9.5 0 Calma 14 Sur 0 -- -- 55
2020-01-06 16:00:00 11.7 7 Sur 17 Sur 0 -- -- 48
2020-01-06 15:00:00 11.1 6 Sur 13 Sudeste 0 -- -- 51
2020-01-06 14:00:00 10.8 4 Sudoeste 14 Sur 0 -- -- 47
2020-01-06 13:00:00 9.5 8 Sudoeste 17 Sur 0 -- -- 53
2020-01-06 12:00:00 7.3 3 Sur 8 Sudoeste 0 -- -- 59
2020-01-06 11:00:00 3.9 0 Calma 6 Sudeste 0 -- -- 71
2020-01-06 10:00:00 -2 0 Calma 6 Este 0 -- -- 80